Aviation Digital Data Service (ADDS)

Output produced by METARs form (0216 UTC 14 December 2017)
found at http://www.aviationweather.gov/adds/metars/
 
METAR text: KPIT 140158Z 15006KT 1SM R28R/6000VP6000FT -SN BR BKN014 BKN022 OVC031 M05/M07 A2948 RMK AO2 P0000 T10501067 $
Conditions at: KPIT (PITTSBURGH , PA, US) observed 0158 UTC 14 December 2017
Temperature: -5.0°C (23°F)
Dewpoint: -6.7°C (20°F) [RH = 88%]
Pressure (altimeter): 29.48 inches Hg (998.4 mb)
Winds: from the SSE (150 degrees) at 7 MPH (6 knots; 3.1 m/s)
Visibility: 1.00 miles (1.61 km)
Ceiling: 1400 feet AGL
Clouds: broken clouds at 1400 feet AGL
broken clouds at 2200 feet AGL
overcast cloud deck at 3100 feet AGL
Weather: -SN BR  (light snow, mist)
SOME DATA ABOVE MAY BE INACCURATE!!!
"$" is an indication the sensor requires maintenance

METAR text: KPIT 140151Z 15006KT 6SM -SN BR SCT017 BKN029 OVC049 M05/M07 A2948 RMK AO2 SLP007 P0003 T10501067
Conditions at: KPIT (PITTSBURGH , PA, US) observed 0151 UTC 14 December 2017
Temperature: -5.0°C (23°F)
Dewpoint: -6.7°C (20°F) [RH = 88%]
Pressure (altimeter): 29.48 inches Hg (998.4 mb)
[Sea-level pressure: 1000.7 mb]
Winds: from the SSE (150 degrees) at 7 MPH (6 knots; 3.1 m/s)
Visibility: 6 miles (10 km)
Ceiling: 2900 feet AGL
Clouds: scattered clouds at 1700 feet AGL
broken clouds at 2900 feet AGL
overcast cloud deck at 4900 feet AGL
Weather: -SN BR  (light snow, mist)

METAR text: KPIT 140142Z 15006KT 4SM -SN BR BKN015 BKN029 OVC070 M05/M07 A2949 RMK AO2 P0003 T10501067
Conditions at: KPIT (PITTSBURGH , PA, US) observed 0142 UTC 14 December 2017
Temperature: -5.0°C (23°F)
Dewpoint: -6.7°C (20°F) [RH = 88%]
Pressure (altimeter): 29.49 inches Hg (998.7 mb)
Winds: from the SSE (150 degrees) at 7 MPH (6 knots; 3.1 m/s)
Visibility: 4 miles (6 km)
Ceiling: 1500 feet AGL
Clouds: broken clouds at 1500 feet AGL
broken clouds at 2900 feet AGL
overcast cloud deck at 7000 feet AGL
Weather: -SN BR  (light snow, mist)

METAR text: KPIT 140100Z 13004KT 1SM R28R/5000VP6000FT -SN BR SCT007 BKN012 OVC018 M05/M07 A2952 RMK AO2 P0000 T10501072
Conditions at: KPIT (PITTSBURGH , PA, US) observed 0100 UTC 14 December 2017
Temperature: -5.0°C (23°F)
Dewpoint: -7.2°C (19°F) [RH = 85%]
Pressure (altimeter): 29.52 inches Hg (999.7 mb)
Winds: from the SE (130 degrees) at 5 MPH (4 knots; 2.1 m/s)
Visibility: 1.00 miles (1.61 km)
Ceiling: 1200 feet AGL
Clouds: scattered clouds at 700 feet AGL
broken clouds at 1200 feet AGL
overcast cloud deck at 1800 feet AGL
Weather: -SN BR  (light snow, mist)

METAR text: KPIT 140051Z VRB05KT 1SM R28R/6000VP6000FT -SN SCT010 BKN018 OVC027 M05/M08 A2952 RMK AO2 SNB41 SLP021 P0000 T10501078
Conditions at: KPIT (PITTSBURGH , PA, US) observed 0051 UTC 14 December 2017
Temperature: -5.0°C (23°F)
Dewpoint: -7.8°C (18°F) [RH = 81%]
Pressure (altimeter): 29.52 inches Hg (999.7 mb)
[Sea-level pressure: 1002.1 mb]
Winds: variable direction winds at 6 MPH (5 knots; 2.6 m/s)
Visibility: 1.00 miles (1.61 km)
Ceiling: 1800 feet AGL
Clouds: scattered clouds at 1000 feet AGL
broken clouds at 1800 feet AGL
overcast cloud deck at 2700 feet AGL
Weather: -SN  (light snow)

METAR text: KPIT 132351Z 14007KT 10SM BKN043 OVC065 M05/M08 A2952 RMK AO2 SLP021 60001 T10501083 11039 21056 56028
Conditions at: KPIT (PITTSBURGH , PA, US) observed 2351 UTC 13 December 2017
Temperature: -5.0°C (23°F)
Dewpoint: -8.3°C (17°F) [RH = 78%]
Pressure (altimeter): 29.52 inches Hg (999.7 mb)
[Sea-level pressure: 1002.1 mb]
Winds: from the SE (140 degrees) at 8 MPH (7 knots; 3.6 m/s)
Visibility: 10 or more miles (16+ km)
Ceiling: 4300 feet AGL
Clouds: broken clouds at 4300 feet AGL
overcast cloud deck at 6500 feet AGL
Weather: no significant weather observed at this time

METAR text: KPIT 132251Z 14012KT 10SM FEW015 SCT040 OVC110 M05/M08 A2953 RMK AO2 SLP025 T10501083
Conditions at: KPIT (PITTSBURGH , PA, US) observed 2251 UTC 13 December 2017
Temperature: -5.0°C (23°F)
Dewpoint: -8.3°C (17°F) [RH = 78%]
Pressure (altimeter): 29.53 inches Hg (1000.1 mb)
[Sea-level pressure: 1002.5 mb]
Winds: from the SE (140 degrees) at 14 MPH (12 knots; 6.2 m/s)
Visibility: 10 or more miles (16+ km)
Ceiling: 11000 feet AGL
Clouds: few clouds at 1500 feet AGL
scattered clouds at 4000 feet AGL
overcast cloud deck at 11000 feet AGL
Weather: no significant weather observed at this time

METAR text: KPIT 132151Z 17006KT 10SM FEW012 BKN032 OVC055 M05/M08 A2958 RMK AO2 SNE51 SLP041 P0001 T10501078
Conditions at: KPIT (PITTSBURGH , PA, US) observed 2151 UTC 13 December 2017
Temperature: -5.0°C (23°F)
Dewpoint: -7.8°C (18°F) [RH = 81%]
Pressure (altimeter): 29.58 inches Hg (1001.8 mb)
[Sea-level pressure: 1004.1 mb]
Winds: from the S (170 degrees) at 7 MPH (6 knots; 3.1 m/s)
Visibility: 10 or more miles (16+ km)
Ceiling: 3200 feet AGL
Clouds: few clouds at 1200 feet AGL
broken clouds at 3200 feet AGL
overcast cloud deck at 5500 feet AGL
Weather: no significant weather observed at this time

METAR text: KPIT 132140Z 18006KT 8SM -SN FEW012 BKN032 OVC060 M05/M08 A2958 RMK AO2 P0001 T10501078
Conditions at: KPIT (PITTSBURGH , PA, US) observed 2140 UTC 13 December 2017
Temperature: -5.0°C (23°F)
Dewpoint: -7.8°C (18°F) [RH = 81%]
Pressure (altimeter): 29.58 inches Hg (1001.8 mb)
Winds: from the S (180 degrees) at 7 MPH (6 knots; 3.1 m/s)
Visibility: 8 miles (13 km)
Ceiling: 3200 feet AGL
Clouds: few clouds at 1200 feet AGL
broken clouds at 3200 feet AGL
overcast cloud deck at 6000 feet AGL
Weather: -SN  (light snow)

METAR text: KPIT 132126Z 17006KT 3SM R28R/5000VP6000FT -SN FEW011 BKN023 OVC080 M05/M08 A2959 RMK AO2 P0001 T10501078
Conditions at: KPIT (PITTSBURGH , PA, US) observed 2126 UTC 13 December 2017
Temperature: -5.0°C (23°F)
Dewpoint: -7.8°C (18°F) [RH = 81%]
Pressure (altimeter): 29.59 inches Hg (1002.1 mb)
Winds: from the S (170 degrees) at 7 MPH (6 knots; 3.1 m/s)
Visibility: 3 miles (5 km)
Ceiling: 2300 feet AGL
Clouds: few clouds at 1100 feet AGL
broken clouds at 2300 feet AGL
overcast cloud deck at 8000 feet AGL
Weather: -SN  (light snow)

METAR text: KPIT 132051Z 18007KT 1SM R28R/4500V6000FT -SN BR SCT015 BKN022 OVC029 M06/M08 A2961 RMK AO2 SLP051 P0000 60000 T10561078 58039
Conditions at: KPIT (PITTSBURGH , PA, US) observed 2051 UTC 13 December 2017
Temperature: -5.6°C (22°F)
Dewpoint: -7.8°C (18°F) [RH = 84%]
Pressure (altimeter): 29.61 inches Hg (1002.8 mb)
[Sea-level pressure: 1005.1 mb]
Winds: from the S (180 degrees) at 8 MPH (7 knots; 3.6 m/s)
Visibility: 1.00 miles (1.61 km)
Ceiling: 2200 feet AGL
Clouds: scattered clouds at 1500 feet AGL
broken clouds at 2200 feet AGL
overcast cloud deck at 2900 feet AGL
Weather: -SN BR  (light snow, mist)

METAR text: KPIT 132021Z 20009KT 2 1/2SM -SN FEW020 BKN028 OVC037 M05/M09 A2963 RMK AO2 TWR VIS 4 P0000 T10501089
Conditions at: KPIT (PITTSBURGH , PA, US) observed 2021 UTC 13 December 2017
Temperature: -5.0°C (23°F)
Dewpoint: -8.9°C (16°F) [RH = 74%]
Pressure (altimeter): 29.63 inches Hg (1003.5 mb)
Winds: from the SSW (200 degrees) at 10 MPH (9 knots; 4.7 m/s)
Visibility: 2.50 miles (4.02 km)
Ceiling: 2800 feet AGL
Clouds: few clouds at 2000 feet AGL
broken clouds at 2800 feet AGL
overcast cloud deck at 3700 feet AGL
Weather: -SN  (light snow)

METAR text: KPIT 131951Z 22011KT 4SM -SN SCT026 BKN035 OVC044 M04/M10 A2965 RMK AO2 SLP067 P0000 T10441100
Conditions at: KPIT (PITTSBURGH , PA, US) observed 1951 UTC 13 December 2017
Temperature: -4.4°C (24°F)
Dewpoint: -10.0°C (14°F) [RH = 65%]
Pressure (altimeter): 29.65 inches Hg (1004.1 mb)
[Sea-level pressure: 1006.7 mb]
Winds: from the SW (220 degrees) at 13 MPH (11 knots; 5.7 m/s)
Visibility: 4 miles (6 km)
Ceiling: 3500 feet AGL
Clouds: scattered clouds at 2600 feet AGL
broken clouds at 3500 feet AGL
overcast cloud deck at 4400 feet AGL
Weather: -SN  (light snow)

METAR text: KPIT 131924Z 24006KT 4SM -SN SCT027 BKN034 OVC041 M04/M11 A2968 RMK AO2 P0000 T10391106
Conditions at: KPIT (PITTSBURGH , PA, US) observed 1924 UTC 13 December 2017
Temperature: -3.9°C (25°F)
Dewpoint: -10.6°C (13°F) [RH = 60%]
Pressure (altimeter): 29.68 inches Hg (1005.2 mb)
Winds: from the WSW (240 degrees) at 7 MPH (6 knots; 3.1 m/s)
Visibility: 4 miles (6 km)
Ceiling: 3400 feet AGL
Clouds: scattered clouds at 2700 feet AGL
broken clouds at 3400 feet AGL
overcast cloud deck at 4100 feet AGL
Weather: -SN  (light snow)

METAR text: KPIT 131851Z 22010KT 8SM -SN FEW025 BKN031 OVC043 M04/M11 A2968 RMK AO2 SNB20 SLP077 P0000 T10441111
Conditions at: KPIT (PITTSBURGH , PA, US) observed 1851 UTC 13 December 2017
Temperature: -4.4°C (24°F)
Dewpoint: -11.1°C (12°F) [RH = 59%]
Pressure (altimeter): 29.68 inches Hg (1005.2 mb)
[Sea-level pressure: 1007.7 mb]
Winds: from the SW (220 degrees) at 12 MPH (10 knots; 5.2 m/s)
Visibility: 8 miles (13 km)
Ceiling: 3100 feet AGL
Clouds: few clouds at 2500 feet AGL
broken clouds at 3100 feet AGL
overcast cloud deck at 4300 feet AGL
Weather: -SN  (light snow)

METAR text: KPIT 131751Z VRB04G16KT 10SM FEW034 SCT060 OVC220 M04/M13 A2972 RMK AO2 SLP090 T10391128 11039 21083 58033
Conditions at: KPIT (PITTSBURGH , PA, US) observed 1751 UTC 13 December 2017
Temperature: -3.9°C (25°F)
Dewpoint: -12.8°C (9°F) [RH = 50%]
Pressure (altimeter): 29.72 inches Hg (1006.5 mb)
[Sea-level pressure: 1009.0 mb]
Winds: variable direction winds at 5 MPH (4 knots; 2.1 m/s)
gusting to 18 MPH (16 knots; 8.3 m/s)
Visibility: 10 or more miles (16+ km)
Ceiling: 22000 feet AGL
Clouds: few clouds at 3400 feet AGL
scattered clouds at 6000 feet AGL
overcast cloud deck at 22000 feet AGL
Weather: no significant weather observed at this time

METAR text: KPIT 131651Z 25009KT 10SM BKN031 OVC220 M05/M12 A2977 RMK AO2 SLP106 T10501122
Conditions at: KPIT (PITTSBURGH , PA, US) observed 1651 UTC 13 December 2017
Temperature: -5.0°C (23°F)
Dewpoint: -12.2°C (10°F) [RH = 57%]
Pressure (altimeter): 29.77 inches Hg (1008.2 mb)
[Sea-level pressure: 1010.6 mb]
Winds: from the WSW (250 degrees) at 10 MPH (9 knots; 4.7 m/s)
Visibility: 10 or more miles (16+ km)
Ceiling: 3100 feet AGL
Clouds: broken clouds at 3100 feet AGL
overcast cloud deck at 22000 feet AGL
Weather: no significant weather observed at this time

METAR text: KPIT 131551Z 25008G17KT 10SM BKN030 BKN035 OVC042 M06/M12 A2980 RMK AO2 SLP117 BINOVC T10561122
Conditions at: KPIT (PITTSBURGH , PA, US) observed 1551 UTC 13 December 2017
Temperature: -5.6°C (22°F)
Dewpoint: -12.2°C (10°F) [RH = 60%]
Pressure (altimeter): 29.80 inches Hg (1009.2 mb)
[Sea-level pressure: 1011.7 mb]
Winds: from the WSW (250 degrees) at 9 MPH (8 knots; 4.2 m/s)
gusting to 20 MPH (17 knots; 8.8 m/s)
Visibility: 10 or more miles (16+ km)
Ceiling: 3000 feet AGL
Clouds: broken clouds at 3000 feet AGL
broken clouds at 3500 feet AGL
overcast cloud deck at 4200 feet AGL
Weather: no significant weather observed at this time

METAR text: KPIT 131451Z 26010KT 10SM FEW028 BKN044 BKN250 M07/M13 A2982 RMK AO2 SLP126 T10671133 55001
Conditions at: KPIT (PITTSBURGH , PA, US) observed 1451 UTC 13 December 2017
Temperature: -6.7°C (20°F)
Dewpoint: -13.3°C (8°F) [RH = 59%]
Pressure (altimeter): 29.82 inches Hg (1009.9 mb)
[Sea-level pressure: 1012.6 mb]
Winds: from the W (260 degrees) at 12 MPH (10 knots; 5.2 m/s)
Visibility: 10 or more miles (16+ km)
Ceiling: 4400 feet AGL
Clouds: few clouds at 2800 feet AGL
broken clouds at 4400 feet AGL
broken clouds at 25000 feet AGL
Weather: no significant weather observed at this time

METAR text: KPIT 131351Z 24008KT 10SM SCT041 BKN080 M08/M14 A2982 RMK AO2 SLP124 T10781144
Conditions at: KPIT (PITTSBURGH , PA, US) observed 1351 UTC 13 December 2017
Temperature: -7.8°C (18°F)
Dewpoint: -14.4°C (6°F) [RH = 59%]
Pressure (altimeter): 29.82 inches Hg (1009.9 mb)
[Sea-level pressure: 1012.4 mb]
Winds: from the WSW (240 degrees) at 9 MPH (8 knots; 4.2 m/s)
Visibility: 10 or more miles (16+ km)
Ceiling: 8000 feet AGL
Clouds: scattered clouds at 4100 feet AGL
broken clouds at 8000 feet AGL
Weather: no significant weather observed at this time

METAR text: KPIT 131251Z 24009KT 10SM BKN042 M08/M15 A2983 RMK AO2 SLP127 T10831150
Conditions at: KPIT (PITTSBURGH , PA, US) observed 1251 UTC 13 December 2017
Temperature: -8.3°C (17°F)
Dewpoint: -15.0°C (5°F) [RH = 58%]
Pressure (altimeter): 29.83 inches Hg (1010.2 mb)
[Sea-level pressure: 1012.7 mb]
Winds: from the WSW (240 degrees) at 10 MPH (9 knots; 4.7 m/s)
Visibility: 10 or more miles (16+ km)
Ceiling: 4200 feet AGL
Clouds: broken clouds at 4200 feet AGL
Weather: no significant weather observed at this time

METAR text: KPIT 131151Z 27010G17KT 10SM BKN045 M08/M16 A2982 RMK AO2 SLP126 7//// T10831156 11083 21094 53009
Conditions at: KPIT (PITTSBURGH , PA, US) observed 1151 UTC 13 December 2017
Temperature: -8.3°C (17°F)
Dewpoint: -15.6°C (4°F) [RH = 56%]
Pressure (altimeter): 29.82 inches Hg (1009.9 mb)
[Sea-level pressure: 1012.6 mb]
Winds: from the W (270 degrees) at 12 MPH (10 knots; 5.2 m/s)
gusting to 20 MPH (17 knots; 8.8 m/s)
Visibility: 10 or more miles (16+ km)
Ceiling: 4500 feet AGL
Clouds: broken clouds at 4500 feet AGL
Weather: no significant weather observed at this time

METAR text: KPIT 131051Z 27009KT 10SM OVC050 M08/M16 A2981 RMK AO2 SLP122 BINOVC T10831156
Conditions at: KPIT (PITTSBURGH , PA, US) observed 1051 UTC 13 December 2017
Temperature: -8.3°C (17°F)
Dewpoint: -15.6°C (4°F) [RH = 56%]
Pressure (altimeter): 29.81 inches Hg (1009.6 mb)
[Sea-level pressure: 1012.2 mb]
Winds: from the W (270 degrees) at 10 MPH (9 knots; 4.7 m/s)
Visibility: 10 or more miles (16+ km)
Ceiling: 5000 feet AGL
Clouds: overcast cloud deck at 5000 feet AGL
Weather: no significant weather observed at this time

METAR text: KPIT 130951Z 26010KT 10SM BKN049 M09/M15 A2980 RMK AO2 SLP118 T10891150
Conditions at: KPIT (PITTSBURGH , PA, US) observed 0951 UTC 13 December 2017
Temperature: -8.9°C (16°F)
Dewpoint: -15.0°C (5°F) [RH = 61%]
Pressure (altimeter): 29.80 inches Hg (1009.2 mb)
[Sea-level pressure: 1011.8 mb]
Winds: from the W (260 degrees) at 12 MPH (10 knots; 5.2 m/s)
Visibility: 10 or more miles (16+ km)
Ceiling: 4900 feet AGL
Clouds: broken clouds at 4900 feet AGL
Weather: no significant weather observed at this time

METAR text: KPIT 130851Z 25010G18KT 10SM SCT050 M09/M14 A2980 RMK AO2 SLP117 T10891139 53008
Conditions at: KPIT (PITTSBURGH , PA, US) observed 0851 UTC 13 December 2017
Temperature: -8.9°C (16°F)
Dewpoint: -13.9°C (7°F) [RH = 67%]
Pressure (altimeter): 29.80 inches Hg (1009.2 mb)
[Sea-level pressure: 1011.7 mb]
Winds: from the WSW (250 degrees) at 12 MPH (10 knots; 5.2 m/s)
gusting to 21 MPH (18 knots; 9.4 m/s)
Visibility: 10 or more miles (16+ km)
Ceiling: at least 12,000 feet AGL
Clouds: scattered clouds at 5000 feet AGL
Weather: no significant weather observed at this time

METAR text: KPIT 130751Z 25010G16KT 10SM CLR M09/M14 A2979 RMK AO2 SLP112 T10941139
Conditions at: KPIT (PITTSBURGH , PA, US) observed 0751 UTC 13 December 2017
Temperature: -9.4°C (15°F)
Dewpoint: -13.9°C (7°F) [RH = 70%]
Pressure (altimeter): 29.79 inches Hg (1008.9 mb)
[Sea-level pressure: 1011.2 mb]
Winds: from the WSW (250 degrees) at 12 MPH (10 knots; 5.2 m/s)
gusting to 18 MPH (16 knots; 8.3 m/s)
Visibility: 10 or more miles (16+ km)
Ceiling: at least 12,000 feet AGL
Clouds: sky clear below 12,000 feet AGL
Weather: no significant weather observed at this time

METAR text: KPIT 130651Z 27010G15KT 10SM OVC055 M09/M14 A2978 RMK AO2 SLP108 T10891139
Conditions at: KPIT (PITTSBURGH , PA, US) observed 0651 UTC 13 December 2017
Temperature: -8.9°C (16°F)
Dewpoint: -13.9°C (7°F) [RH = 67%]
Pressure (altimeter): 29.78 inches Hg (1008.5 mb)
[Sea-level pressure: 1010.8 mb]
Winds: from the W (270 degrees) at 12 MPH (10 knots; 5.2 m/s)
gusting to 17 MPH (15 knots; 7.8 m/s)
Visibility: 10 or more miles (16+ km)
Ceiling: 5500 feet AGL
Clouds: overcast cloud deck at 5500 feet AGL
Weather: no significant weather observed at this time

METAR text: KPIT 130551Z 27009G17KT 10SM BKN060 M09/M14 A2977 RMK AO2 SLP106 60000 T10891139 11072 21089 56003
Conditions at: KPIT (PITTSBURGH , PA, US) observed 0551 UTC 13 December 2017
Temperature: -8.9°C (16°F)
Dewpoint: -13.9°C (7°F) [RH = 67%]
Pressure (altimeter): 29.77 inches Hg (1008.2 mb)
[Sea-level pressure: 1010.6 mb]
Winds: from the W (270 degrees) at 10 MPH (9 knots; 4.7 m/s)
gusting to 20 MPH (17 knots; 8.8 m/s)
Visibility: 10 or more miles (16+ km)
Ceiling: 6000 feet AGL
Clouds: broken clouds at 6000 feet AGL
Weather: no significant weather observed at this time

METAR text: KPIT 130451Z 27011KT 10SM FEW030 SCT065 M09/M14 A2977 RMK AO2 SNB05E35 SLP105 P0000 T10891139 400611089
Conditions at: KPIT (PITTSBURGH , PA, US) observed 0451 UTC 13 December 2017
Temperature: -8.9°C (16°F)
Dewpoint: -13.9°C (7°F) [RH = 67%]
Pressure (altimeter): 29.77 inches Hg (1008.2 mb)
[Sea-level pressure: 1010.5 mb]
Winds: from the W (270 degrees) at 13 MPH (11 knots; 5.7 m/s)
Visibility: 10 or more miles (16+ km)
Ceiling: at least 12,000 feet AGL
Clouds: few clouds at 3000 feet AGL
scattered clouds at 6500 feet AGL
Weather: no significant weather observed at this time

METAR text: KPIT 130351Z 26010KT 10SM FEW038 SCT070 M09/M13 A2977 RMK AO2 SNE51 SLP105 P0000 T10891133
Conditions at: KPIT (PITTSBURGH , PA, US) observed 0351 UTC 13 December 2017
Temperature: -8.9°C (16°F)
Dewpoint: -13.3°C (8°F) [RH = 70%]
Pressure (altimeter): 29.77 inches Hg (1008.2 mb)
[Sea-level pressure: 1010.5 mb]
Winds: from the W (260 degrees) at 12 MPH (10 knots; 5.2 m/s)
Visibility: 10 or more miles (16+ km)
Ceiling: at least 12,000 feet AGL
Clouds: few clouds at 3800 feet AGL
scattered clouds at 7000 feet AGL
Weather: no significant weather observed at this time

METAR text: KPIT 130251Z COR 27009KT 6SM -SN BKN039 OVC070 M08/M13 A2978 RMK AO2 SLP109 P0000 60000 T10831128 58005
Conditions at: KPIT (PITTSBURGH , PA, US) observed 0251 UTC 13 December 2017
Temperature: -8.3°C (17°F)
Dewpoint: -12.8°C (9°F) [RH = 70%]
Pressure (altimeter): 29.78 inches Hg (1008.5 mb)
[Sea-level pressure: 1010.9 mb]
Winds: from the W (270 degrees) at 10 MPH (9 knots; 4.7 m/s)
Visibility: 6 miles (10 km)
Ceiling: 3900 feet AGL
Clouds: broken clouds at 3900 feet AGL
overcast cloud deck at 7000 feet AGL
Weather: -SN  (light snow)